createdAt,value
2019-02-19T00:01:41.195Z,20.67
2019-02-19T00:04:09.192Z,21.10
2019-02-19T00:06:37.306Z,19.40
2019-02-19T00:09:06.079Z,18.00
2019-02-19T00:11:34.054Z,18.60
2019-02-19T00:14:02.188Z,17.77
2019-02-19T00:16:30.383Z,19.93
2019-02-19T00:18:58.633Z,18.40
2019-02-19T00:21:26.677Z,19.53
2019-02-19T00:23:54.755Z,17.47
2019-02-19T00:26:22.707Z,20.93
2019-02-19T00:28:50.516Z,19.13
2019-02-19T00:31:18.516Z,23.63
2019-02-19T00:33:46.495Z,21.60
2019-02-19T00:36:14.421Z,21.67
2019-02-19T00:38:42.327Z,21.23
2019-02-19T00:41:10.458Z,17.97
2019-02-19T00:43:38.479Z,19.57
2019-02-19T00:46:06.480Z,16.60
2019-02-19T00:48:34.461Z,20.73
2019-02-19T00:51:02.596Z,20.13
2019-02-19T00:53:30.600Z,18.47
2019-02-19T00:55:59.631Z,18.63
2019-02-19T00:58:27.782Z,20.60
2019-02-19T01:00:56.013Z,18.13
2019-02-19T01:03:24.299Z,21.70
2019-02-19T01:05:52.536Z,17.93
2019-02-19T01:08:20.355Z,18.87
2019-02-19T01:10:48.542Z,20.67
2019-02-19T01:13:16.838Z,22.87
2019-02-19T01:15:44.771Z,20.00
2019-02-19T01:18:12.728Z,21.87
2019-02-19T01:20:40.702Z,19.83
2019-02-19T01:23:08.798Z,22.53
2019-02-19T01:25:36.630Z,19.97
2019-02-19T01:28:04.582Z,20.70
2019-02-19T01:30:32.765Z,23.10
2019-02-19T01:33:01.870Z,19.17
2019-02-19T01:35:29.731Z,23.07
2019-02-19T01:37:57.605Z,18.77
2019-02-19T01:40:25.681Z,21.53
2019-02-19T01:42:54.564Z,20.77
2019-02-19T01:45:22.652Z,19.40
2019-02-19T01:47:50.704Z,21.97
2019-02-19T01:50:20.015Z,24.23
2019-02-19T01:52:48.111Z,18.77
2019-02-19T01:55:16.119Z,22.87
2019-02-19T01:57:44.087Z,20.53
2019-02-19T02:00:12.113Z,17.97
2019-02-19T02:02:40.225Z,20.53
2019-02-19T02:05:11.138Z,21.60
2019-02-19T02:07:39.086Z,21.67
2019-02-19T02:10:07.245Z,21.83
2019-02-19T02:12:35.415Z,19.27
2019-02-19T02:15:03.378Z,18.57
2019-02-19T02:17:31.504Z,21.87
2019-02-19T02:19:59.600Z,16.13
2019-02-19T02:22:27.730Z,19.70
2019-02-19T02:24:55.799Z,22.10
2019-02-19T02:27:24.126Z,19.90
2019-02-19T02:29:52.469Z,20.50
2019-02-19T02:32:20.478Z,22.97
2019-02-19T02:34:48.386Z,20.33
2019-02-19T02:37:17.257Z,21.77
2019-02-19T02:39:45.148Z,21.70
2019-02-19T02:42:13.091Z,22.57
2019-02-19T02:44:42.037Z,19.40
2019-02-19T02:47:10.205Z,19.83
2019-02-19T02:49:38.845Z,19.63
2019-02-19T02:52:06.766Z,20.07
2019-02-19T02:54:34.733Z,20.17
2019-02-19T02:57:02.887Z,22.43
2019-02-19T02:59:31.049Z,21.40
2019-02-19T03:01:59.972Z,20.63
2019-02-19T03:04:28.041Z,21.87
2019-02-19T03:07:10.609Z,22.43
2019-02-19T03:09:38.805Z,18.33
2019-02-19T03:12:06.864Z,22.87
2019-02-19T03:14:34.795Z,21.63
2019-02-19T03:17:02.722Z,21.50
2019-02-19T03:19:30.776Z,19.83
2019-02-19T03:21:58.904Z,19.17
2019-02-19T03:24:26.986Z,21.57
2019-02-19T03:26:55.045Z,18.87
2019-02-19T03:29:22.969Z,19.83
2019-02-19T03:31:50.928Z,19.03
2019-02-19T03:34:19.905Z,20.73
2019-02-19T03:36:49.123Z,17.93
2019-02-19T03:39:16.963Z,20.23
2019-02-19T03:41:45.104Z,19.33
2019-02-19T03:44:12.998Z,17.60
2019-02-19T03:46:40.998Z,21.60
2019-02-19T03:49:08.874Z,19.53
2019-02-19T03:51:36.630Z,21.57
2019-02-19T03:54:04.632Z,17.73
2019-02-19T03:56:32.759Z,20.17
2019-02-19T03:59:00.705Z,21.07
2019-02-19T04:01:29.025Z,19.33
2019-02-19T04:03:57.154Z,20.77
2019-02-19T04:06:25.073Z,21.33
2019-02-19T04:08:53.054Z,22.27
2019-02-19T04:11:21.132Z,25.97
2019-02-19T04:13:49.205Z,19.37
2019-02-19T04:16:21.360Z,21.53
2019-02-19T04:18:46.980Z,20.33
2019-02-19T04:21:15.114Z,23.33
2019-02-19T04:23:42.961Z,17.87
2019-02-19T04:26:11.178Z,18.60
2019-02-19T04:28:39.115Z,20.97
2019-02-19T04:31:07.273Z,21.70
2019-02-19T04:33:35.980Z,19.27
2019-02-19T04:36:04.099Z,21.30
2019-02-19T04:38:32.076Z,21.30
2019-02-19T04:41:00.351Z,24.03
2019-02-19T04:43:28.307Z,25.27
2019-02-19T04:45:56.464Z,19.67
2019-02-19T04:48:24.859Z,21.40
2019-02-19T04:50:52.627Z,21.10
2019-02-19T04:53:20.599Z,22.70
2019-02-19T04:55:48.515Z,20.67
2019-02-19T04:58:16.499Z,24.90
2019-02-19T05:00:45.418Z,22.93
2019-02-19T05:03:13.945Z,23.27
2019-02-19T05:05:41.860Z,20.33
2019-02-19T05:08:09.730Z,19.20
2019-02-19T05:10:37.557Z,19.27
2019-02-19T05:13:05.570Z,20.33
2019-02-19T05:15:33.476Z,18.33
2019-02-19T05:18:01.395Z,22.10
2019-02-19T05:20:29.396Z,21.53
2019-02-19T05:22:57.375Z,22.70
2019-02-19T05:25:25.589Z,22.13
2019-02-19T05:27:53.512Z,28.43
2019-02-19T05:30:21.433Z,24.83
2019-02-19T05:32:49.316Z,22.50
2019-02-19T05:35:17.170Z,22.17
2019-02-19T05:37:44.943Z,22.47
2019-02-19T05:40:12.912Z,23.57
2019-02-19T05:42:40.798Z,20.37
2019-02-19T05:45:08.835Z,22.80
2019-02-19T05:47:36.737Z,23.07
2019-02-19T05:50:04.711Z,22.43
2019-02-19T05:52:32.833Z,25.03
2019-02-19T05:55:00.780Z,25.17
2019-02-19T05:57:28.843Z,25.60
2019-02-19T05:59:56.644Z,25.10
2019-02-19T06:02:24.645Z,30.87
2019-02-19T06:04:52.553Z,25.73
2019-02-19T06:07:20.563Z,24.03
2019-02-19T06:09:48.502Z,32.20
2019-02-19T06:12:16.459Z,24.43
2019-02-19T06:14:44.281Z,28.67
2019-02-19T06:17:12.178Z,26.93
2019-02-19T06:19:40.261Z,29.90
2019-02-19T06:22:08.197Z,30.97
2019-02-19T06:24:37.200Z,25.40
2019-02-19T06:27:05.207Z,26.23
2019-02-19T06:29:33.119Z,23.97
2019-02-19T06:32:00.825Z,26.93
2019-02-19T06:34:28.833Z,24.43
2019-02-19T06:36:56.651Z,24.20
2019-02-19T06:39:24.629Z,26.87
2019-02-19T06:41:52.510Z,19.83
2019-02-19T06:44:21.078Z,29.97
2019-02-19T06:46:49.874Z,29.90
2019-02-19T06:49:18.069Z,28.57
2019-02-19T06:51:46.138Z,30.03
2019-02-19T06:54:14.160Z,28.20
2019-02-19T06:56:42.052Z,29.53
2019-02-19T06:59:10.162Z,30.10
2019-02-19T07:01:57.021Z,33.53
2019-02-19T07:04:28.757Z,31.53
2019-02-19T07:06:56.774Z,35.47
2019-02-19T07:09:24.913Z,31.47
2019-02-19T07:11:52.910Z,38.37
2019-02-19T07:14:20.984Z,30.50
2019-02-19T07:16:48.819Z,42.13
2019-02-19T07:19:16.680Z,36.23
2019-02-19T07:21:44.863Z,32.47
2019-02-19T07:24:12.747Z,42.67
2019-02-19T07:26:40.727Z,38.33
2019-02-19T07:29:08.802Z,37.00
2019-02-19T07:31:36.569Z,32.23
2019-02-19T07:34:04.417Z,34.83
2019-02-19T07:36:32.446Z,34.63
2019-02-19T07:39:00.459Z,38.20
2019-02-19T07:41:28.342Z,40.90
2019-02-19T07:43:56.209Z,28.53
2019-02-19T07:46:24.072Z,34.17
2019-02-19T07:48:52.067Z,26.53
2019-02-19T07:51:20.182Z,31.90
2019-02-19T07:53:48.481Z,32.00
2019-02-19T07:56:16.401Z,33.97
2019-02-19T07:58:44.415Z,68.90
2019-02-19T08:01:12.188Z,55.07
2019-02-19T08:03:40.146Z,27.47
2019-02-19T08:06:08.062Z,28.30
2019-02-19T08:08:36.203Z,33.07
2019-02-19T08:11:04.309Z,32.10
2019-02-19T08:13:32.151Z,28.80
2019-02-19T08:16:01.114Z,23.17
2019-02-19T08:18:29.097Z,30.67
2019-02-19T08:20:57.025Z,27.27
2019-02-19T08:23:25.046Z,30.70
2019-02-19T08:25:53.031Z,28.80
2019-02-19T08:28:20.966Z,33.73
2019-02-19T08:30:49.154Z,35.87
2019-02-19T08:33:17.213Z,32.47
2019-02-19T08:35:45.085Z,25.90
2019-02-19T08:38:12.961Z,26.47
2019-02-19T08:40:40.913Z,34.97
2019-02-19T08:43:08.898Z,28.83
2019-02-19T08:45:36.825Z,37.07
2019-02-19T08:48:04.819Z,25.43
2019-02-19T08:50:32.737Z,28.27
2019-02-19T08:53:00.783Z,33.63
2019-02-19T08:55:28.637Z,33.30
2019-02-19T08:57:56.478Z,27.93
2019-02-19T09:00:24.573Z,23.47
2019-02-19T09:02:52.541Z,29.13
2019-02-19T09:05:20.521Z,22.47
2019-02-19T09:07:48.318Z,23.03
2019-02-19T09:10:16.257Z,20.87
2019-02-19T09:12:44.333Z,16.10
2019-02-19T09:15:12.401Z,22.77
2019-02-19T09:17:40.310Z,34.17
2019-02-19T09:20:08.440Z,29.60
2019-02-19T09:22:36.323Z,31.00
2019-02-19T09:25:04.690Z,21.50
2019-02-19T09:27:32.559Z,16.07
2019-02-19T09:30:00.511Z,18.90
2019-02-19T09:32:28.479Z,26.40
2019-02-19T09:34:56.354Z,22.50
2019-02-19T09:37:25.279Z,31.63
2019-02-19T09:39:54.764Z,21.67
2019-02-19T09:42:22.608Z,24.93
2019-02-19T09:44:50.580Z,26.33
2019-02-19T09:47:18.582Z,27.63
2019-02-19T09:49:46.358Z,25.73
2019-02-19T09:52:14.201Z,22.83
2019-02-19T09:54:42.364Z,27.53
2019-02-19T09:57:10.246Z,34.37
2019-02-19T09:59:38.292Z,27.57
2019-02-19T10:02:06.316Z,18.60
2019-02-19T10:04:34.364Z,28.30
2019-02-19T10:07:02.141Z,30.63
2019-02-19T10:09:30.595Z,31.93
2019-02-19T10:11:58.486Z,33.20
2019-02-19T10:14:26.533Z,22.43
2019-02-19T10:16:54.444Z,24.00
2019-02-19T10:19:22.592Z,23.83
2019-02-19T10:21:51.763Z,24.73
2019-02-19T10:24:19.787Z,20.17
2019-02-19T10:26:49.590Z,20.83
2019-02-19T10:29:17.669Z,17.20
2019-02-19T10:31:45.697Z,18.77
2019-02-19T10:34:13.815Z,22.33
2019-02-19T10:36:41.843Z,22.80
2019-02-19T10:39:11.359Z,18.23
2019-02-19T10:41:39.619Z,20.63
2019-02-19T10:44:07.488Z,19.23
2019-02-19T10:46:35.620Z,21.70
2019-02-19T10:49:03.572Z,21.33
2019-02-19T10:51:31.831Z,21.63
2019-02-19T10:54:00.091Z,21.50
2019-02-19T10:56:28.039Z,19.60
2019-02-19T10:58:55.995Z,23.47
2019-02-19T11:01:23.808Z,16.10
2019-02-19T11:03:51.847Z,15.87
2019-02-19T11:06:19.795Z,18.90
2019-02-19T11:08:47.767Z,18.93
2019-02-19T11:11:15.723Z,17.67
2019-02-19T11:13:43.891Z,18.67
2019-02-19T11:16:12.051Z,18.53
2019-02-19T11:18:40.334Z,21.13
2019-02-19T11:21:08.375Z,19.27
2019-02-19T11:23:36.192Z,19.87
2019-02-19T11:26:04.401Z,16.77
2019-02-19T11:28:32.563Z,17.37
2019-02-19T11:31:00.663Z,13.30
2019-02-19T11:33:28.857Z,17.07
2019-02-19T11:35:56.862Z,19.70
2019-02-19T11:38:24.942Z,20.00
2019-02-19T11:40:52.803Z,18.43
2019-02-19T11:43:20.849Z,21.13
2019-02-19T11:45:48.971Z,16.20
2019-02-19T11:48:16.991Z,17.67
2019-02-19T11:50:44.841Z,18.53
2019-02-19T11:53:12.728Z,17.07
2019-02-19T11:55:40.662Z,20.70
2019-02-19T11:58:08.546Z,19.43
2019-02-19T12:00:38.869Z,19.03
2019-02-19T12:03:06.770Z,18.30
2019-02-19T12:05:34.696Z,20.93
2019-02-19T12:08:02.803Z,18.17
2019-02-19T12:10:30.864Z,19.03
2019-02-19T12:12:58.880Z,16.80
2019-02-19T12:15:34.932Z,21.47
2019-02-19T12:17:56.723Z,17.70
2019-02-19T12:20:24.679Z,19.40
2019-02-19T12:22:52.883Z,16.13
2019-02-19T12:25:20.892Z,18.53
2019-02-19T12:27:48.808Z,18.63
2019-02-19T12:30:17.763Z,16.80
2019-02-19T12:32:45.562Z,15.03
2019-02-19T12:35:13.604Z,19.13
2019-02-19T12:37:41.541Z,23.53
2019-02-19T12:40:09.798Z,19.23
2019-02-19T12:42:38.118Z,17.63
2019-02-19T12:45:07.173Z,19.07
2019-02-19T12:47:35.437Z,16.27
2019-02-19T12:50:03.722Z,16.27
2019-02-19T12:52:31.700Z,25.00
2019-02-19T12:54:59.912Z,15.67
2019-02-19T12:57:27.908Z,16.87
2019-02-19T12:59:56.769Z,18.20
2019-02-19T13:02:24.825Z,17.33
2019-02-19T13:04:52.974Z,18.07
2019-02-19T13:07:20.763Z,19.47
2019-02-19T13:09:48.818Z,15.90
2019-02-19T13:12:16.906Z,17.07
2019-02-19T13:14:44.794Z,18.70
2019-02-19T13:17:15.776Z,17.63
2019-02-19T13:19:43.869Z,18.83
2019-02-19T13:22:11.849Z,17.57
2019-02-19T13:24:39.654Z,14.00
2019-02-19T13:27:07.590Z,17.00
2019-02-19T13:29:36.083Z,13.83
2019-02-19T13:32:04.206Z,16.63
2019-02-19T13:34:32.229Z,21.33
2019-02-19T13:37:00.192Z,14.53
2019-02-19T13:39:28.286Z,16.67
2019-02-19T13:41:56.079Z,16.47
2019-02-19T13:44:24.089Z,16.37
2019-02-19T13:46:52.070Z,15.13
2019-02-19T13:49:20.034Z,16.40
2019-02-19T13:51:47.904Z,16.07
2019-02-19T13:54:29.828Z,16.07
2019-02-19T13:56:57.880Z,15.17
2019-02-19T13:59:25.903Z,15.30
2019-02-19T14:01:53.839Z,13.10
2019-02-19T14:04:21.877Z,16.53
2019-02-19T14:06:49.888Z,20.63
2019-02-19T14:09:17.894Z,16.20
2019-02-19T14:11:45.951Z,19.13
2019-02-19T14:14:21.551Z,16.33
2019-02-19T14:16:55.866Z,19.43
2019-02-19T14:19:44.904Z,13.27
2019-02-19T14:22:31.039Z,14.63
2019-02-19T14:25:27.530Z,14.27
2019-02-19T14:28:16.031Z,9.60
2019-02-19T14:31:18.811Z,14.00
2019-02-19T14:34:05.681Z,15.37
2019-02-19T14:36:55.538Z,16.57
2019-02-19T14:39:46.006Z,15.10
2019-02-19T14:42:36.203Z,15.67
2019-02-19T14:45:22.551Z,12.77
2019-02-19T14:48:06.558Z,14.30
2019-02-19T14:50:54.199Z,15.23
2019-02-19T14:53:57.251Z,15.50
2019-02-19T14:56:42.292Z,15.20
2019-02-19T14:59:27.448Z,15.30
2019-02-19T15:02:14.992Z,10.40
2019-02-19T15:04:59.899Z,12.17
2019-02-19T15:07:56.369Z,13.93
2019-02-19T15:10:49.740Z,16.17
2019-02-19T15:13:37.222Z,13.10
2019-02-19T15:16:12.698Z,15.17
2019-02-19T15:19:06.131Z,17.97
2019-02-19T15:22:09.192Z,9.80
2019-02-19T15:24:56.539Z,12.37
2019-02-19T15:27:42.776Z,11.27
2019-02-19T15:30:30.152Z,10.03
2019-02-19T15:33:04.843Z,12.37
2019-02-19T15:36:02.098Z,13.47
2019-02-19T15:38:52.270Z,14.13
2019-02-19T15:41:32.740Z,13.40
2019-02-19T15:44:26.800Z,16.90
2019-02-19T15:47:16.337Z,15.03
2019-02-19T15:50:03.795Z,17.17
2019-02-19T15:52:54.328Z,15.73
2019-02-19T15:55:40.590Z,13.60
2019-02-19T15:58:27.122Z,16.03
2019-02-19T16:01:13.221Z,15.57
2019-02-19T16:03:59.157Z,13.23
2019-02-19T16:06:53.700Z,10.47
2019-02-19T16:09:44.064Z,13.93
2019-02-19T16:12:43.536Z,12.47
2019-02-19T16:15:42.936Z,14.83
2019-02-19T16:18:33.819Z,18.00
2019-02-19T16:21:21.634Z,14.83
2019-02-19T16:24:07.778Z,15.43
2019-02-19T16:27:03.888Z,15.93
2019-02-19T16:30:00.394Z,18.50
2019-02-19T16:32:50.543Z,16.50
2019-02-19T16:35:47.033Z,12.27
2019-02-19T16:38:40.570Z,19.40
2019-02-19T16:41:40.117Z,16.57
2019-02-19T16:44:39.462Z,18.83
2019-02-19T16:47:25.392Z,21.07
2019-02-19T16:50:12.825Z,20.47
2019-02-19T16:52:51.026Z,23.17
2019-02-19T16:55:33.380Z,16.57
2019-02-19T16:58:14.989Z,18.07
2019-02-19T17:01:02.370Z,26.03
2019-02-19T17:03:52.919Z,20.20
2019-02-19T17:06:28.736Z,18.83
2019-02-19T17:09:19.117Z,24.97
2019-02-19T17:12:16.921Z,23.13
2019-02-19T17:14:52.136Z,22.97
2019-02-19T17:17:48.850Z,17.63
2019-02-19T17:20:29.170Z,21.30
2019-02-19T17:23:16.844Z,30.83
2019-02-19T17:26:01.227Z,23.53
2019-02-19T17:28:34.690Z,20.03
2019-02-19T17:31:18.755Z,19.53
2019-02-19T17:34:06.711Z,22.80
2019-02-19T17:36:54.236Z,22.93
2019-02-19T17:39:46.597Z,19.60
2019-02-19T17:42:26.528Z,24.40
2019-02-19T17:45:22.988Z,21.10
2019-02-19T17:48:13.651Z,17.87
2019-02-19T17:51:10.122Z,24.23
2019-02-19T17:54:06.551Z,20.73
2019-02-19T17:57:06.192Z,22.50
2019-02-19T18:00:02.771Z,21.73
2019-02-19T18:02:42.065Z,20.70
2019-02-19T18:05:27.789Z,24.83
2019-02-19T18:08:23.788Z,21.27
2019-02-19T18:11:14.105Z,25.67
2019-02-19T18:14:00.346Z,25.80
2019-02-19T18:16:46.642Z,26.10
2019-02-19T18:19:14.881Z,23.70
2019-02-19T18:21:42.906Z,26.03
2019-02-19T18:24:10.958Z,25.60
2019-02-19T18:26:38.884Z,29.13
2019-02-19T18:29:06.831Z,29.30
2019-02-19T18:31:34.794Z,24.47
2019-02-19T18:34:02.849Z,24.37
2019-02-19T18:36:30.651Z,25.40
2019-02-19T18:38:58.599Z,25.40
2019-02-19T18:41:26.607Z,26.57
2019-02-19T18:43:54.722Z,23.73
2019-02-19T18:46:22.643Z,22.70
2019-02-19T18:48:50.704Z,23.60
2019-02-19T18:51:19.773Z,24.73
2019-02-19T18:53:47.830Z,25.37
2019-02-19T18:56:15.613Z,23.73
2019-02-19T18:58:43.747Z,25.77
2019-02-19T19:01:11.822Z,24.60
2019-02-19T19:03:39.615Z,25.77
2019-02-19T19:06:09.219Z,30.47
2019-02-19T19:08:37.002Z,28.17
2019-02-19T19:11:04.857Z,30.57
2019-02-19T19:13:33.104Z,23.77
2019-02-19T19:16:01.077Z,29.53
2019-02-19T19:18:29.179Z,27.20
2019-02-19T19:20:57.022Z,35.83
2019-02-19T19:23:24.981Z,41.53
2019-02-19T19:25:52.908Z,32.30
2019-02-19T19:28:22.760Z,34.10
2019-02-19T19:30:50.924Z,33.57
2019-02-19T19:33:18.940Z,39.87
2019-02-19T19:35:46.788Z,33.07
2019-02-19T19:38:14.878Z,32.97
2019-02-19T19:40:42.767Z,33.20
2019-02-19T19:43:10.789Z,33.03
2019-02-19T19:45:38.592Z,30.73
2019-02-19T19:48:06.654Z,30.30
2019-02-19T19:50:34.673Z,29.10
2019-02-19T19:53:02.691Z,32.87
2019-02-19T19:55:30.681Z,29.40
2019-02-19T19:57:59.030Z,31.20
2019-02-19T20:00:26.821Z,29.13
2019-02-19T20:02:55.128Z,27.17
2019-02-19T20:05:23.283Z,30.33
2019-02-19T20:07:51.904Z,29.33
2019-02-19T20:10:19.862Z,35.20
2019-02-19T20:12:47.813Z,33.37
2019-02-19T20:15:15.725Z,33.43
2019-02-19T20:17:44.563Z,34.07
2019-02-19T20:20:12.484Z,29.47
2019-02-19T20:22:40.408Z,28.27
2019-02-19T20:25:08.843Z,28.67
2019-02-19T20:27:38.354Z,31.70
2019-02-19T20:30:07.391Z,30.90
2019-02-19T20:32:37.088Z,28.23
2019-02-19T20:35:05.479Z,29.63
2019-02-19T20:37:33.492Z,29.90
2019-02-19T20:40:01.733Z,29.13
2019-02-19T20:42:29.885Z,27.20
2019-02-19T20:44:57.946Z,29.83
2019-02-19T20:47:26.022Z,31.97
2019-02-19T20:49:54.085Z,29.07
2019-02-19T20:52:22.159Z,33.40
2019-02-19T20:54:50.113Z,34.47
2019-02-19T20:57:18.213Z,33.33
2019-02-19T20:59:46.250Z,33.20
2019-02-19T21:02:14.235Z,33.80
2019-02-19T21:04:42.271Z,29.27
2019-02-19T21:07:10.388Z,34.43
2019-02-19T21:09:43.972Z,31.13
2019-02-19T21:12:08.086Z,31.33
2019-02-19T21:14:35.937Z,32.60
2019-02-19T21:17:04.086Z,33.97
2019-02-19T21:19:32.056Z,32.07
2019-02-19T21:22:00.014Z,30.43
2019-02-19T21:24:28.310Z,29.50
2019-02-19T21:26:56.375Z,33.87
2019-02-19T21:29:24.290Z,31.13
2019-02-19T21:31:52.291Z,30.80
2019-02-19T21:34:20.107Z,37.53
2019-02-19T21:36:48.194Z,36.20
2019-02-19T21:39:16.241Z,30.87
2019-02-19T21:41:44.421Z,31.23
2019-02-19T21:44:12.655Z,32.00
2019-02-19T21:46:41.316Z,33.20
2019-02-19T21:49:09.377Z,29.77
2019-02-19T21:51:37.482Z,31.47
2019-02-19T21:54:05.501Z,30.97
2019-02-19T21:56:33.822Z,31.63
2019-02-19T21:59:01.855Z,33.97
2019-02-19T22:01:30.021Z,31.50
2019-02-19T22:03:58.032Z,29.00
2019-02-19T22:06:27.335Z,29.50
2019-02-19T22:08:55.305Z,32.87
2019-02-19T22:11:23.329Z,27.57
2019-02-19T22:13:51.527Z,29.17
2019-02-19T22:16:19.571Z,29.87
2019-02-19T22:18:47.462Z,30.90
2019-02-19T22:21:50.036Z,28.60
2019-02-19T22:24:34.070Z,28.17
2019-02-19T22:27:04.890Z,31.20
2019-02-19T22:29:32.866Z,27.27
2019-02-19T22:32:01.014Z,30.73
2019-02-19T22:34:28.914Z,31.17
2019-02-19T22:36:56.964Z,32.97
2019-02-19T22:39:24.859Z,29.67
2019-02-19T22:41:52.936Z,28.30
2019-02-19T22:44:20.759Z,33.13
2019-02-19T22:46:48.864Z,28.63
2019-02-19T22:49:16.725Z,25.80
2019-02-19T22:51:44.721Z,31.77
2019-02-19T22:54:35.954Z,29.83
2019-02-19T22:57:04.089Z,28.77
2019-02-19T22:59:31.827Z,27.03
2019-02-19T23:02:05.830Z,26.90
2019-02-19T23:04:33.712Z,32.10
2019-02-19T23:07:01.694Z,27.73
2019-02-19T23:09:29.458Z,30.83
2019-02-19T23:11:57.551Z,25.97
2019-02-19T23:14:25.686Z,27.13
2019-02-19T23:16:53.694Z,27.33
2019-02-19T23:19:21.755Z,26.60
2019-02-19T23:21:49.775Z,28.33
2019-02-19T23:24:17.684Z,30.67
2019-02-19T23:26:45.587Z,28.50
2019-02-19T23:29:13.748Z,29.47
2019-02-19T23:31:41.590Z,29.30
2019-02-19T23:34:09.866Z,28.47
2019-02-19T23:36:49.889Z,29.40
2019-02-19T23:39:17.802Z,30.37
2019-02-19T23:41:45.768Z,29.27
2019-02-19T23:44:13.622Z,31.67
2019-02-19T23:46:41.641Z,26.77
2019-02-19T23:49:09.545Z,28.10
2019-02-19T23:51:37.635Z,29.27
2019-02-19T23:54:05.899Z,33.30
2019-02-19T23:56:33.868Z,28.77
2019-02-19T23:59:01.745Z,27.43
